Terminal Aerodrome Forecast
Issued by NWS Northern Indiana

Home | Current Version | Previous Version | Graphics & Text | Print | Product List | Glossary On
Versions: 1 2 3 4 5 6 7 8 9 10 11 12 13 14 15 16 17 18
537
FTUS43 KIWX 252234 AAA
TAFFWA
TAF AMD
KFWA 252234Z 2523/2618 27016G25KT 6SM -SN OVC025
     FM260000 27012KT P6SM BKN035
     FM261100 22006KT P6SM SCT120=

USA.gov is the U.S. government's official web portal to all federal, state and local government web resources and services.